sensor_id;sensor_type;location;lat;lon;timestamp;temperature;humidity
13659;DHT22;6902;52.158;11.574;2022-08-18T00:00:10;23.30;99.90
13659;DHT22;6902;52.158;11.574;2022-08-18T00:02:40;23.20;99.90
13659;DHT22;6902;52.158;11.574;2022-08-18T00:05:09;23.20;99.90
13659;DHT22;6902;52.158;11.574;2022-08-18T00:07:38;23.20;99.90
13659;DHT22;6902;52.158;11.574;2022-08-18T00:10:06;23.10;99.90
13659;DHT22;6902;52.158;11.574;2022-08-18T00:12:36;23.20;99.90
13659;DHT22;6902;52.158;11.574;2022-08-18T00:15:05;23.10;99.90
13659;DHT22;6902;52.158;11.574;2022-08-18T00:17:35;23.10;99.90
13659;DHT22;6902;52.158;11.574;2022-08-18T00:20:05;23.10;99.90
13659;DHT22;6902;52.158;11.574;2022-08-18T00:22:32;23.00;99.90
13659;DHT22;6902;52.158;11.574;2022-08-18T00:25:00;23.00;99.90
13659;DHT22;6902;52.158;11.574;2022-08-18T00:27:29;23.00;99.90
13659;DHT22;6902;52.158;11.574;2022-08-18T00:29:58;23.00;99.90
13659;DHT22;6902;52.158;11.574;2022-08-18T00:32:27;23.00;99.90
13659;DHT22;6902;52.158;11.574;2022-08-18T00:34:57;23.00;99.90
13659;DHT22;6902;52.158;11.574;2022-08-18T00:37:24;23.00;99.90
13659;DHT22;6902;52.158;11.574;2022-08-18T00:39:51;22.90;99.90
13659;DHT22;6902;52.158;11.574;2022-08-18T00:42:21;22.80;99.90
13659;DHT22;6902;52.158;11.574;2022-08-18T00:44:48;22.70;99.90
13659;DHT22;6902;52.158;11.574;2022-08-18T00:47:15;22.50;99.90
13659;DHT22;6902;52.158;11.574;2022-08-18T00:49:44;22.50;99.90
13659;DHT22;6902;52.158;11.574;2022-08-18T00:52:15;22.40;99.90
13659;DHT22;6902;52.158;11.574;2022-08-18T00:54:44;22.30;99.90
13659;DHT22;6902;52.158;11.574;2022-08-18T00:57:13;22.30;99.90
13659;DHT22;6902;52.158;11.574;2022-08-18T00:59:47;22.20;99.90
13659;DHT22;6902;52.158;11.574;2022-08-18T01:02:18;22.10;99.90
13659;DHT22;6902;52.158;11.574;2022-08-18T01:04:50;22.10;99.90
13659;DHT22;6902;52.158;11.574;2022-08-18T01:07:23;22.10;99.90
13659;DHT22;6902;52.158;11.574;2022-08-18T01:09:54;22.10;99.90
13659;DHT22;6902;52.158;11.574;2022-08-18T01:12:24;22.10;99.90
13659;DHT22;6902;52.158;11.574;2022-08-18T01:14:52;22.10;99.90
13659;DHT22;6902;52.158;11.574;2022-08-18T01:17:20;22.10;99.90
13659;DHT22;6902;52.158;11.574;2022-08-18T01:20:06;22.10;99.90
13659;DHT22;6902;52.158;11.574;2022-08-18T01:22:59;22.10;99.90
13659;DHT22;6902;52.158;11.574;2022-08-18T01:25:30;22.00;99.90
13659;DHT22;6902;52.158;11.574;2022-08-18T01:28:15;22.00;99.90
13659;DHT22;6902;52.158;11.574;2022-08-18T01:30:50;22.00;99.90
13659;DHT22;6902;52.158;11.574;2022-08-18T01:33:20;22.00;99.90
13659;DHT22;6902;52.158;11.574;2022-08-18T01:35:48;22.00;99.90
13659;DHT22;6902;52.158;11.574;2022-08-18T01:38:18;21.90;99.90
13659;DHT22;6902;52.158;11.574;2022-08-18T01:40:46;21.90;99.90
13659;DHT22;6902;52.158;11.574;2022-08-18T01:43:13;21.90;99.90
13659;DHT22;6902;52.158;11.574;2022-08-18T01:45:41;21.90;99.90
13659;DHT22;6902;52.158;11.574;2022-08-18T01:48:08;21.90;99.90
13659;DHT22;6902;52.158;11.574;2022-08-18T01:50:37;21.90;99.90
13659;DHT22;6902;52.158;11.574;2022-08-18T01:53:05;21.90;99.90
13659;DHT22;6902;52.158;11.574;2022-08-18T01:55:36;21.90;99.90
13659;DHT22;6902;52.158;11.574;2022-08-18T01:58:04;21.90;99.90
13659;DHT22;6902;52.158;11.574;2022-08-18T02:00:34;21.80;99.90
13659;DHT22;6902;52.158;11.574;2022-08-18T02:03:04;21.80;99.90
13659;DHT22;6902;52.158;11.574;2022-08-18T02:05:37;21.80;99.90
13659;DHT22;6902;52.158;11.574;2022-08-18T02:08:05;21.80;99.90
13659;DHT22;6902;52.158;11.574;2022-08-18T02:10:34;21.70;99.90
13659;DHT22;6902;52.158;11.574;2022-08-18T02:13:01;21.80;99.90
13659;DHT22;6902;52.158;11.574;2022-08-18T02:15:29;21.80;99.90
13659;DHT22;6902;52.158;11.574;2022-08-18T02:17:57;21.80;99.90
13659;DHT22;6902;52.158;11.574;2022-08-18T02:20:24;21.70;99.90
13659;DHT22;6902;52.158;11.574;2022-08-18T02:22:52;21.70;99.90
13659;DHT22;6902;52.158;11.574;2022-08-18T02:25:21;21.70;99.90
13659;DHT22;6902;52.158;11.574;2022-08-18T02:27:50;21.70;99.90
13659;DHT22;6902;52.158;11.574;2022-08-18T02:30:18;21.60;99.90
13659;DHT22;6902;52.158;11.574;2022-08-18T02:32:46;21.60;99.90
13659;DHT22;6902;52.158;11.574;2022-08-18T02:35:14;21.70;99.90
13659;DHT22;6902;52.158;11.574;2022-08-18T02:37:42;21.60;99.90
13659;DHT22;6902;52.158;11.574;2022-08-18T02:40:13;21.60;99.90
13659;DHT22;6902;52.158;11.574;2022-08-18T02:42:42;21.60;99.90
13659;DHT22;6902;52.158;11.574;2022-08-18T02:45:13;21.50;99.90
13659;DHT22;6902;52.158;11.574;2022-08-18T02:47:41;21.50;99.90
13659;DHT22;6902;52.158;11.574;2022-08-18T02:50:13;21.40;99.90
13659;DHT22;6902;52.158;11.574;2022-08-18T02:52:41;21.40;99.90
13659;DHT22;6902;52.158;11.574;2022-08-18T02:55:09;21.40;99.90
13659;DHT22;6902;52.158;11.574;2022-08-18T02:57:41;21.40;99.90
13659;DHT22;6902;52.158;11.574;2022-08-18T03:00:13;21.30;99.90
13659;DHT22;6902;52.158;11.574;2022-08-18T03:05:12;21.20;99.90
13659;DHT22;6902;52.158;11.574;2022-08-18T03:07:39;21.00;99.90
13659;DHT22;6902;52.158;11.574;2022-08-18T03:10:07;20.90;99.90
13659;DHT22;6902;52.158;11.574;2022-08-18T03:12:35;20.80;99.90
13659;DHT22;6902;52.158;11.574;2022-08-18T03:15:03;20.80;99.90
13659;DHT22;6902;52.158;11.574;2022-08-18T03:17:35;20.80;99.90
13659;DHT22;6902;52.158;11.574;2022-08-18T03:20:04;20.80;99.90
13659;DHT22;6902;52.158;11.574;2022-08-18T03:22:32;20.90;99.90
13659;DHT22;6902;52.158;11.574;2022-08-18T03:25:02;20.90;99.90
13659;DHT22;6902;52.158;11.574;2022-08-18T03:27:30;20.90;99.90
13659;DHT22;6902;52.158;11.574;2022-08-18T03:29:57;20.90;99.90
13659;DHT22;6902;52.158;11.574;2022-08-18T03:32:27;20.80;99.90
13659;DHT22;6902;52.158;11.574;2022-08-18T03:34:56;20.80;99.90
13659;DHT22;6902;52.158;11.574;2022-08-18T03:37:24;20.80;99.90
13659;DHT22;6902;52.158;11.574;2022-08-18T03:39:51;20.70;99.90
13659;DHT22;6902;52.158;11.574;2022-08-18T03:42:19;20.70;99.90
13659;DHT22;6902;52.158;11.574;2022-08-18T03:44:46;20.80;99.90
13659;DHT22;6902;52.158;11.574;2022-08-18T03:47:13;20.80;99.90
13659;DHT22;6902;52.158;11.574;2022-08-18T03:49:42;20.80;99.90
13659;DHT22;6902;52.158;11.574;2022-08-18T03:52:12;20.90;99.90
13659;DHT22;6902;52.158;11.574;2022-08-18T03:54:39;20.90;99.90
13659;DHT22;6902;52.158;11.574;2022-08-18T03:57:09;20.90;99.90
13659;DHT22;6902;52.158;11.574;2022-08-18T03:59:37;20.90;99.90
13659;DHT22;6902;52.158;11.574;2022-08-18T04:02:07;21.00;99.90
13659;DHT22;6902;52.158;11.574;2022-08-18T04:04:35;21.00;99.90
13659;DHT22;6902;52.158;11.574;2022-08-18T04:07:07;21.00;99.90
13659;DHT22;6902;52.158;11.574;2022-08-18T04:09:38;21.00;99.90
13659;DHT22;6902;52.158;11.574;2022-08-18T04:12:08;21.10;99.90
13659;DHT22;6902;52.158;11.574;2022-08-18T04:14:39;21.10;99.90
13659;DHT22;6902;52.158;11.574;2022-08-18T04:17:07;21.10;99.90
13659;DHT22;6902;52.158;11.574;2022-08-18T04:19:38;21.10;99.90
13659;DHT22;6902;52.158;11.574;2022-08-18T04:22:08;21.10;99.90
13659;DHT22;6902;52.158;11.574;2022-08-18T04:24:37;21.10;99.90
13659;DHT22;6902;52.158;11.574;2022-08-18T04:27:08;21.10;99.90
13659;DHT22;6902;52.158;11.574;2022-08-18T04:29:35;21.10;99.90
13659;DHT22;6902;52.158;11.574;2022-08-18T04:32:03;21.10;99.90
13659;DHT22;6902;52.158;11.574;2022-08-18T04:34:31;21.20;99.90
13659;DHT22;6902;52.158;11.574;2022-08-18T04:36:59;21.20;99.90
13659;DHT22;6902;52.158;11.574;2022-08-18T04:39:27;21.20;99.90
13659;DHT22;6902;52.158;11.574;2022-08-18T04:41:59;21.20;99.90
13659;DHT22;6902;52.158;11.574;2022-08-18T04:44:28;21.20;99.90
13659;DHT22;6902;52.158;11.574;2022-08-18T04:46:56;21.30;99.90
13659;DHT22;6902;52.158;11.574;2022-08-18T04:49:24;21.30;99.90
13659;DHT22;6902;52.158;11.574;2022-08-18T04:51:57;21.30;99.90
13659;DHT22;6902;52.158;11.574;2022-08-18T04:54:42;21.30;99.90
13659;DHT22;6902;52.158;11.574;2022-08-18T04:57:13;21.30;99.90
13659;DHT22;6902;52.158;11.574;2022-08-18T04:59:43;21.30;99.90
13659;DHT22;6902;52.158;11.574;2022-08-18T05:02:11;21.30;99.90
13659;DHT22;6902;52.158;11.574;2022-08-18T05:04:40;21.40;99.90
13659;DHT22;6902;52.158;11.574;2022-08-18T05:07:13;21.40;99.90
13659;DHT22;6902;52.158;11.574;2022-08-18T05:09:41;21.40;99.90
13659;DHT22;6902;52.158;11.574;2022-08-18T05:12:12;21.40;99.90
13659;DHT22;6902;52.158;11.574;2022-08-18T05:14:40;21.40;99.90
13659;DHT22;6902;52.158;11.574;2022-08-18T05:17:09;21.40;99.90
13659;DHT22;6902;52.158;11.574;2022-08-18T05:19:37;21.40;99.90
13659;DHT22;6902;52.158;11.574;2022-08-18T05:22:04;21.40;99.90
13659;DHT22;6902;52.158;11.574;2022-08-18T05:24:32;21.40;99.90
13659;DHT22;6902;52.158;11.574;2022-08-18T05:27:02;21.40;99.90
13659;DHT22;6902;52.158;11.574;2022-08-18T05:29:32;21.40;99.90
13659;DHT22;6902;52.158;11.574;2022-08-18T05:32:02;21.50;99.90
13659;DHT22;6902;52.158;11.574;2022-08-18T05:34:34;21.50;99.90
13659;DHT22;6902;52.158;11.574;2022-08-18T05:37:10;21.50;99.90
13659;DHT22;6902;52.158;11.574;2022-08-18T05:39:50;21.60;99.90
13659;DHT22;6902;52.158;11.574;2022-08-18T05:42:20;21.60;99.90
13659;DHT22;6902;52.158;11.574;2022-08-18T05:44:54;21.70;99.90
13659;DHT22;6902;52.158;11.574;2022-08-18T05:47:24;21.70;99.90
13659;DHT22;6902;52.158;11.574;2022-08-18T05:49:55;21.70;99.90
13659;DHT22;6902;52.158;11.574;2022-08-18T05:52:29;21.80;99.90
13659;DHT22;6902;52.158;11.574;2022-08-18T05:55:01;21.80;99.90
13659;DHT22;6902;52.158;11.574;2022-08-18T05:57:53;21.90;99.90
13659;DHT22;6902;52.158;11.574;2022-08-18T06:00:23;22.00;99.90
13659;DHT22;6902;52.158;11.574;2022-08-18T06:02:56;22.10;99.90
13659;DHT22;6902;52.158;11.574;2022-08-18T06:05:28;22.20;99.90
13659;DHT22;6902;52.158;11.574;2022-08-18T06:07:59;22.40;99.90
13659;DHT22;6902;52.158;11.574;2022-08-18T06:10:28;22.50;99.90
13659;DHT22;6902;52.158;11.574;2022-08-18T06:12:58;22.80;99.90
13659;DHT22;6902;52.158;11.574;2022-08-18T06:15:32;22.90;99.90
13659;DHT22;6902;52.158;11.574;2022-08-18T06:21:17;23.00;99.90
13659;DHT22;6902;52.158;11.574;2022-08-18T06:23:54;23.00;99.90
13659;DHT22;6902;52.158;11.574;2022-08-18T06:26:30;22.90;99.90
13659;DHT22;6902;52.158;11.574;2022-08-18T06:29:07;22.80;99.90
13659;DHT22;6902;52.158;11.574;2022-08-18T06:31:44;22.80;99.90
13659;DHT22;6902;52.158;11.574;2022-08-18T06:34:20;22.70;99.90
13659;DHT22;6902;52.158;11.574;2022-08-18T06:36:53;22.70;99.90
13659;DHT22;6902;52.158;11.574;2022-08-18T06:39:27;22.60;99.90
13659;DHT22;6902;52.158;11.574;2022-08-18T06:41:56;22.60;99.90
13659;DHT22;6902;52.158;11.574;2022-08-18T06:44:29;22.70;99.90
13659;DHT22;6902;52.158;11.574;2022-08-18T06:47:03;22.70;99.90
13659;DHT22;6902;52.158;11.574;2022-08-18T06:49:38;22.80;99.90
13659;DHT22;6902;52.158;11.574;2022-08-18T06:52:22;22.80;99.90
13659;DHT22;6902;52.158;11.574;2022-08-18T06:54:51;22.70;99.90
13659;DHT22;6902;52.158;11.574;2022-08-18T06:57:26;22.70;99.90
13659;DHT22;6902;52.158;11.574;2022-08-18T06:59:59;22.80;99.90
13659;DHT22;6902;52.158;11.574;2022-08-18T07:02:44;22.80;99.90
13659;DHT22;6902;52.158;11.574;2022-08-18T07:05:20;22.90;99.90
13659;DHT22;6902;52.158;11.574;2022-08-18T07:08:09;22.90;99.90
13659;DHT22;6902;52.158;11.574;2022-08-18T07:10:39;22.90;99.90
13659;DHT22;6902;52.158;11.574;2022-08-18T07:13:18;23.00;99.90
13659;DHT22;6902;52.158;11.574;2022-08-18T07:15:46;23.00;99.90
13659;DHT22;6902;52.158;11.574;2022-08-18T07:18:23;23.00;99.90
13659;DHT22;6902;52.158;11.574;2022-08-18T07:20:53;23.20;99.90
13659;DHT22;6902;52.158;11.574;2022-08-18T07:23:25;23.20;99.90
13659;DHT22;6902;52.158;11.574;2022-08-18T07:26:02;23.30;99.90
13659;DHT22;6902;52.158;11.574;2022-08-18T07:28:32;23.30;99.90
13659;DHT22;6902;52.158;11.574;2022-08-18T07:31:20;23.40;99.90
13659;DHT22;6902;52.158;11.574;2022-08-18T07:33:56;23.50;99.90
13659;DHT22;6902;52.158;11.574;2022-08-18T07:36:27;23.60;99.90
13659;DHT22;6902;52.158;11.574;2022-08-18T07:39:02;23.60;99.90
13659;DHT22;6902;52.158;11.574;2022-08-18T07:41:33;23.70;99.90
13659;DHT22;6902;52.158;11.574;2022-08-18T07:44:09;23.80;99.90
13659;DHT22;6902;52.158;11.574;2022-08-18T07:46:44;24.00;99.90
13659;DHT22;6902;52.158;11.574;2022-08-18T07:49:19;24.00;99.90
13659;DHT22;6902;52.158;11.574;2022-08-18T07:51:49;24.10;99.90
13659;DHT22;6902;52.158;11.574;2022-08-18T07:54:27;24.10;99.90
13659;DHT22;6902;52.158;11.574;2022-08-18T07:57:01;24.20;99.90
13659;DHT22;6902;52.158;11.574;2022-08-18T07:59:34;24.20;99.90
13659;DHT22;6902;52.158;11.574;2022-08-18T08:02:17;24.20;99.90
13659;DHT22;6902;52.158;11.574;2022-08-18T08:04:51;24.30;99.90
13659;DHT22;6902;52.158;11.574;2022-08-18T08:07:24;24.30;99.90
13659;DHT22;6902;52.158;11.574;2022-08-18T08:10:02;24.30;99.90
13659;DHT22;6902;52.158;11.574;2022-08-18T08:12:36;24.30;99.90
13659;DHT22;6902;52.158;11.574;2022-08-18T08:15:18;24.30;99.90
13659;DHT22;6902;52.158;11.574;2022-08-18T08:17:52;24.40;99.90
13659;DHT22;6902;52.158;11.574;2022-08-18T08:20:26;24.40;99.90
13659;DHT22;6902;52.158;11.574;2022-08-18T08:23:04;24.50;99.90
13659;DHT22;6902;52.158;11.574;2022-08-18T08:25:43;24.50;99.90
13659;DHT22;6902;52.158;11.574;2022-08-18T08:28:18;24.50;99.90
13659;DHT22;6902;52.158;11.574;2022-08-18T08:30:53;24.50;99.90
13659;DHT22;6902;52.158;11.574;2022-08-18T08:33:24;24.50;99.90
13659;DHT22;6902;52.158;11.574;2022-08-18T08:35:57;24.50;99.90
13659;DHT22;6902;52.158;11.574;2022-08-18T08:38:37;24.60;99.90
13659;DHT22;6902;52.158;11.574;2022-08-18T08:41:10;24.70;99.90
13659;DHT22;6902;52.158;11.574;2022-08-18T08:43:41;24.80;99.90
13659;DHT22;6902;52.158;11.574;2022-08-18T08:46:12;24.90;99.90
13659;DHT22;6902;52.158;11.574;2022-08-18T08:48:43;25.10;99.90
13659;DHT22;6902;52.158;11.574;2022-08-18T08:51:27;25.40;99.90
13659;DHT22;6902;52.158;11.574;2022-08-18T08:53:59;25.70;99.90
13659;DHT22;6902;52.158;11.574;2022-08-18T08:56:30;26.00;99.90
13659;DHT22;6902;52.158;11.574;2022-08-18T08:59:02;26.30;99.90
13659;DHT22;6902;52.158;11.574;2022-08-18T09:01:33;26.40;99.90
13659;DHT22;6902;52.158;11.574;2022-08-18T09:04:16;26.60;99.90
13659;DHT22;6902;52.158;11.574;2022-08-18T09:06:56;26.80;99.90
13659;DHT22;6902;52.158;11.574;2022-08-18T09:09:47;27.00;99.90
13659;DHT22;6902;52.158;11.574;2022-08-18T09:12:27;27.30;99.90
13659;DHT22;6902;52.158;11.574;2022-08-18T09:15:39;27.40;99.90
13659;DHT22;6902;52.158;11.574;2022-08-18T09:18:31;27.60;99.90
13659;DHT22;6902;52.158;11.574;2022-08-18T09:21:12;27.70;99.90
13659;DHT22;6902;52.158;11.574;2022-08-18T09:23:47;27.70;99.90
13659;DHT22;6902;52.158;11.574;2022-08-18T09:26:41;27.70;99.90
13659;DHT22;6902;52.158;11.574;2022-08-18T09:29:18;27.60;99.90
13659;DHT22;6902;52.158;11.574;2022-08-18T09:31:48;27.50;99.90
13659;DHT22;6902;52.158;11.574;2022-08-18T09:34:44;27.40;99.90
13659;DHT22;6902;52.158;11.574;2022-08-18T09:37:19;27.30;99.90
13659;DHT22;6902;52.158;11.574;2022-08-18T09:39:56;27.30;99.90
13659;DHT22;6902;52.158;11.574;2022-08-18T09:42:50;27.40;99.90
13659;DHT22;6902;52.158;11.574;2022-08-18T09:45:51;27.30;99.90
13659;DHT22;6902;52.158;11.574;2022-08-18T09:48:31;27.30;99.90
13659;DHT22;6902;52.158;11.574;2022-08-18T09:51:32;27.20;99.90
13659;DHT22;6902;52.158;11.574;2022-08-18T09:54:18;27.40;99.90
13659;DHT22;6902;52.158;11.574;2022-08-18T09:57:21;27.50;99.90
13659;DHT22;6902;52.158;11.574;2022-08-18T10:00:18;27.60;99.90
13659;DHT22;6902;52.158;11.574;2022-08-18T10:03:11;27.80;99.90
13659;DHT22;6902;52.158;11.574;2022-08-18T10:05:54;28.00;99.90
13659;DHT22;6902;52.158;11.574;2022-08-18T10:09:06;28.20;99.90
13659;DHT22;6902;52.158;11.574;2022-08-18T10:11:45;28.30;99.90
13659;DHT22;6902;52.158;11.574;2022-08-18T10:14:39;28.50;99.90
13659;DHT22;6902;52.158;11.574;2022-08-18T10:17:24;28.50;99.90
13659;DHT22;6902;52.158;11.574;2022-08-18T10:20:02;28.50;99.90
13659;DHT22;6902;52.158;11.574;2022-08-18T10:22:39;28.50;99.90
13659;DHT22;6902;52.158;11.574;2022-08-18T10:25:10;28.60;99.90
13659;DHT22;6902;52.158;11.574;2022-08-18T10:27:49;28.70;99.90
13659;DHT22;6902;52.158;11.574;2022-08-18T10:34:03;29.10;99.90
13659;DHT22;6902;52.158;11.574;2022-08-18T10:36:36;29.20;99.90
13659;DHT22;6902;52.158;11.574;2022-08-18T10:39:05;29.30;99.90
13659;DHT22;6902;52.158;11.574;2022-08-18T10:41:36;29.50;99.90
13659;DHT22;6902;52.158;11.574;2022-08-18T10:44:04;29.70;99.90
13659;DHT22;6902;52.158;11.574;2022-08-18T10:46:34;29.60;99.90
13659;DHT22;6902;52.158;11.574;2022-08-18T10:49:19;29.60;99.90
13659;DHT22;6902;52.158;11.574;2022-08-18T10:52:01;29.50;99.90
13659;DHT22;6902;52.158;11.574;2022-08-18T10:54:40;29.40;99.90
13659;DHT22;6902;52.158;11.574;2022-08-18T10:57:14;29.30;99.90
13659;DHT22;6902;52.158;11.574;2022-08-18T10:59:48;29.30;99.90
13659;DHT22;6902;52.158;11.574;2022-08-18T11:02:35;29.20;99.90
13659;DHT22;6902;52.158;11.574;2022-08-18T11:05:10;29.20;99.90
13659;DHT22;6902;52.158;11.574;2022-08-18T11:07:40;29.10;99.90
13659;DHT22;6902;52.158;11.574;2022-08-18T11:10:18;28.90;99.90
13659;DHT22;6902;52.158;11.574;2022-08-18T11:13:00;28.90;99.90
13659;DHT22;6902;52.158;11.574;2022-08-18T11:15:37;28.80;99.90
13659;DHT22;6902;52.158;11.574;2022-08-18T11:18:20;28.60;99.90
13659;DHT22;6902;52.158;11.574;2022-08-18T11:21:21;28.50;99.90
13659;DHT22;6902;52.158;11.574;2022-08-18T11:24:02;28.40;99.90
13659;DHT22;6902;52.158;11.574;2022-08-18T11:26:29;28.30;99.90
13659;DHT22;6902;52.158;11.574;2022-08-18T11:28:56;28.20;99.90
13659;DHT22;6902;52.158;11.574;2022-08-18T11:31:23;28.10;99.90
13659;DHT22;6902;52.158;11.574;2022-08-18T11:33:50;28.00;99.90
13659;DHT22;6902;52.158;11.574;2022-08-18T11:36:28;28.00;99.90
13659;DHT22;6902;52.158;11.574;2022-08-18T11:38:56;27.90;99.90
13659;DHT22;6902;52.158;11.574;2022-08-18T11:41:26;27.80;99.90
13659;DHT22;6902;52.158;11.574;2022-08-18T11:43:55;27.80;99.90
13659;DHT22;6902;52.158;11.574;2022-08-18T11:46:28;27.70;99.90
13659;DHT22;6902;52.158;11.574;2022-08-18T11:48:56;27.60;99.90
13659;DHT22;6902;52.158;11.574;2022-08-18T11:51:26;27.60;99.90
13659;DHT22;6902;52.158;11.574;2022-08-18T11:53:56;27.60;99.90
13659;DHT22;6902;52.158;11.574;2022-08-18T11:56:26;27.60;99.90
13659;DHT22;6902;52.158;11.574;2022-08-18T11:58:55;27.70;99.90
13659;DHT22;6902;52.158;11.574;2022-08-18T12:01:37;27.60;99.90
13659;DHT22;6902;52.158;11.574;2022-08-18T12:04:22;27.70;99.90
13659;DHT22;6902;52.158;11.574;2022-08-18T12:06:57;27.90;99.90
13659;DHT22;6902;52.158;11.574;2022-08-18T12:09:33;28.00;99.90
13659;DHT22;6902;52.158;11.574;2022-08-18T12:12:04;28.10;99.90
13659;DHT22;6902;52.158;11.574;2022-08-18T12:14:49;28.10;99.90
13659;DHT22;6902;52.158;11.574;2022-08-18T12:17:18;28.20;99.90
13659;DHT22;6902;52.158;11.574;2022-08-18T12:19:45;28.20;99.90
13659;DHT22;6902;52.158;11.574;2022-08-18T12:22:17;28.30;99.90
13659;DHT22;6902;52.158;11.574;2022-08-18T12:24:45;28.30;99.90
13659;DHT22;6902;52.158;11.574;2022-08-18T12:27:13;28.30;99.90
13659;DHT22;6902;52.158;11.574;2022-08-18T12:29:41;28.30;99.90
13659;DHT22;6902;52.158;11.574;2022-08-18T12:32:09;28.30;99.90
13659;DHT22;6902;52.158;11.574;2022-08-18T12:34:37;28.30;99.90
13659;DHT22;6902;52.158;11.574;2022-08-18T12:37:07;28.30;99.90
13659;DHT22;6902;52.158;11.574;2022-08-18T12:39:36;28.30;99.90
13659;DHT22;6902;52.158;11.574;2022-08-18T12:42:05;28.30;99.90
13659;DHT22;6902;52.158;11.574;2022-08-18T12:44:32;28.30;99.90
13659;DHT22;6902;52.158;11.574;2022-08-18T12:47:00;28.30;99.90
13659;DHT22;6902;52.158;11.574;2022-08-18T12:49:28;28.40;99.90
13659;DHT22;6902;52.158;11.574;2022-08-18T12:51:55;28.50;99.90
13659;DHT22;6902;52.158;11.574;2022-08-18T12:54:22;28.50;99.90
13659;DHT22;6902;52.158;11.574;2022-08-18T12:56:53;28.60;99.90
13659;DHT22;6902;52.158;11.574;2022-08-18T12:59:22;28.60;99.90
13659;DHT22;6902;52.158;11.574;2022-08-18T13:01:50;28.70;99.90
13659;DHT22;6902;52.158;11.574;2022-08-18T13:04:17;28.80;99.90
13659;DHT22;6902;52.158;11.574;2022-08-18T13:06:47;28.80;99.90
13659;DHT22;6902;52.158;11.574;2022-08-18T13:09:15;28.90;99.90
13659;DHT22;6902;52.158;11.574;2022-08-18T13:11:43;28.90;99.90
13659;DHT22;6902;52.158;11.574;2022-08-18T13:14:11;29.00;99.90
13659;DHT22;6902;52.158;11.574;2022-08-18T13:16:42;29.00;99.90
13659;DHT22;6902;52.158;11.574;2022-08-18T13:19:11;29.00;99.90
13659;DHT22;6902;52.158;11.574;2022-08-18T13:21:41;29.10;99.90
13659;DHT22;6902;52.158;11.574;2022-08-18T13:24:08;29.20;99.90
13659;DHT22;6902;52.158;11.574;2022-08-18T13:34:01;29.40;99.90
13659;DHT22;6902;52.158;11.574;2022-08-18T13:36:29;29.40;99.90
13659;DHT22;6902;52.158;11.574;2022-08-18T13:39:09;29.40;99.90
13659;DHT22;6902;52.158;11.574;2022-08-18T13:41:36;29.40;99.90
13659;DHT22;6902;52.158;11.574;2022-08-18T13:44:04;29.40;99.90
13659;DHT22;6902;52.158;11.574;2022-08-18T13:46:32;29.40;99.90
13659;DHT22;6902;52.158;11.574;2022-08-18T13:49:00;29.40;99.90
13659;DHT22;6902;52.158;11.574;2022-08-18T13:51:27;29.30;99.90
13659;DHT22;6902;52.158;11.574;2022-08-18T13:53:55;29.30;99.90
13659;DHT22;6902;52.158;11.574;2022-08-18T13:56:22;29.30;99.90
13659;DHT22;6902;52.158;11.574;2022-08-18T13:58:49;29.20;99.90
13659;DHT22;6902;52.158;11.574;2022-08-18T14:01:16;29.00;99.90
13659;DHT22;6902;52.158;11.574;2022-08-18T14:03:45;29.00;99.90
13659;DHT22;6902;52.158;11.574;2022-08-18T14:06:13;28.90;99.90
13659;DHT22;6902;52.158;11.574;2022-08-18T14:08:40;28.80;99.90
13659;DHT22;6902;52.158;11.574;2022-08-18T14:11:08;28.60;99.90
13659;DHT22;6902;52.158;11.574;2022-08-18T14:13:35;28.60;99.90
13659;DHT22;6902;52.158;11.574;2022-08-18T14:16:03;28.60;99.90
13659;DHT22;6902;52.158;11.574;2022-08-18T14:18:30;28.40;99.90
13659;DHT22;6902;52.158;11.574;2022-08-18T14:20:59;28.50;99.90
13659;DHT22;6902;52.158;11.574;2022-08-18T14:23:44;28.40;99.90
13659;DHT22;6902;52.158;11.574;2022-08-18T14:26:28;28.30;99.90
13659;DHT22;6902;52.158;11.574;2022-08-18T14:29:14;28.30;99.90
13659;DHT22;6902;52.158;11.574;2022-08-18T14:31:42;28.30;99.90
13659;DHT22;6902;52.158;11.574;2022-08-18T14:34:09;28.30;99.90
13659;DHT22;6902;52.158;11.574;2022-08-18T14:36:39;28.30;99.90
13659;DHT22;6902;52.158;11.574;2022-08-18T14:39:06;28.50;99.90
13659;DHT22;6902;52.158;11.574;2022-08-18T14:41:34;28.40;99.90
13659;DHT22;6902;52.158;11.574;2022-08-18T14:44:01;28.40;99.90
13659;DHT22;6902;52.158;11.574;2022-08-18T14:46:28;28.40;99.90
13659;DHT22;6902;52.158;11.574;2022-08-18T14:48:55;28.50;99.90
13659;DHT22;6902;52.158;11.574;2022-08-18T14:51:23;28.50;99.90
13659;DHT22;6902;52.158;11.574;2022-08-18T14:53:52;28.50;99.90
13659;DHT22;6902;52.158;11.574;2022-08-18T14:56:19;28.40;99.90
13659;DHT22;6902;52.158;11.574;2022-08-18T14:58:46;28.40;99.90
13659;DHT22;6902;52.158;11.574;2022-08-18T15:01:13;28.30;99.90
13659;DHT22;6902;52.158;11.574;2022-08-18T15:03:40;28.30;99.90
13659;DHT22;6902;52.158;11.574;2022-08-18T15:06:08;28.30;99.90
13659;DHT22;6902;52.158;11.574;2022-08-18T15:08:36;28.20;99.90
13659;DHT22;6902;52.158;11.574;2022-08-18T15:11:06;28.30;99.90
13659;DHT22;6902;52.158;11.574;2022-08-18T15:13:33;28.10;99.90
13659;DHT22;6902;52.158;11.574;2022-08-18T15:16:01;28.00;99.90
13659;DHT22;6902;52.158;11.574;2022-08-18T15:18:29;28.10;99.90
13659;DHT22;6902;52.158;11.574;2022-08-18T15:20:55;28.10;99.90
13659;DHT22;6902;52.158;11.574;2022-08-18T15:23:40;27.90;99.90
13659;DHT22;6902;52.158;11.574;2022-08-18T15:26:26;27.90;99.90
13659;DHT22;6902;52.158;11.574;2022-08-18T15:28:53;27.80;99.90
13659;DHT22;6902;52.158;11.574;2022-08-18T15:31:20;27.80;99.90
13659;DHT22;6902;52.158;11.574;2022-08-18T15:33:47;27.70;99.90
13659;DHT22;6902;52.158;11.574;2022-08-18T15:36:15;27.80;99.90
13659;DHT22;6902;52.158;11.574;2022-08-18T15:38:46;27.80;99.90
13659;DHT22;6902;52.158;11.574;2022-08-18T15:41:29;27.70;99.90
13659;DHT22;6902;52.158;11.574;2022-08-18T15:43:56;27.70;99.90
13659;DHT22;6902;52.158;11.574;2022-08-18T15:46:23;27.70;99.90
13659;DHT22;6902;52.158;11.574;2022-08-18T15:48:50;27.70;99.90
13659;DHT22;6902;52.158;11.574;2022-08-18T15:51:17;27.70;99.90
13659;DHT22;6902;52.158;11.574;2022-08-18T15:53:45;27.60;99.90
13659;DHT22;6902;52.158;11.574;2022-08-18T15:56:14;27.60;99.90
13659;DHT22;6902;52.158;11.574;2022-08-18T15:58:43;27.60;99.90
13659;DHT22;6902;52.158;11.574;2022-08-18T16:01:12;27.60;99.90
13659;DHT22;6902;52.158;11.574;2022-08-18T16:03:39;27.50;99.90
13659;DHT22;6902;52.158;11.574;2022-08-18T16:06:11;27.50;99.90
13659;DHT22;6902;52.158;11.574;2022-08-18T16:08:39;27.40;99.90
13659;DHT22;6902;52.158;11.574;2022-08-18T16:11:08;27.40;99.90
13659;DHT22;6902;52.158;11.574;2022-08-18T16:13:35;27.40;99.90
13659;DHT22;6902;52.158;11.574;2022-08-18T16:16:10;27.40;99.90
13659;DHT22;6902;52.158;11.574;2022-08-18T16:18:37;27.40;99.90